createdAt,value
2018-07-11T00:01:39.268Z,76.50
2018-07-11T00:04:07.853Z,75.40
2018-07-11T00:06:36.444Z,75.54
2018-07-11T00:09:05.424Z,75.85
2018-07-11T00:11:34.024Z,75.77
2018-07-11T00:14:02.612Z,76.02
2018-07-11T00:16:31.192Z,75.90
2018-07-11T00:18:59.764Z,76.20
2018-07-11T00:21:28.354Z,76.00
2018-07-11T00:23:56.960Z,76.13
2018-07-11T00:26:25.576Z,75.46
2018-07-11T00:28:54.164Z,74.65
2018-07-11T00:31:22.744Z,75.22
2018-07-11T00:33:51.305Z,75.15
2018-07-11T00:36:19.896Z,75.71
2018-07-11T00:38:48.491Z,75.70
2018-07-11T00:41:17.150Z,75.73
2018-07-11T00:43:45.760Z,76.41
2018-07-11T00:46:17.017Z,76.82
2018-07-11T00:48:46.479Z,76.92
2018-07-11T00:51:15.053Z,76.58
2018-07-11T00:53:43.633Z,76.62
2018-07-11T00:56:12.353Z,76.25
2018-07-11T00:58:45.651Z,75.55
2018-07-11T01:01:15.702Z,76.69
2018-07-11T01:03:49.872Z,76.53
2018-07-11T01:06:19.404Z,76.34
2018-07-11T01:08:51.316Z,76.22
2018-07-11T01:11:19.976Z,76.19
2018-07-11T01:13:49.371Z,75.97
2018-07-11T01:16:19.332Z,75.97
2018-07-11T01:19:00.579Z,76.03
2018-07-11T01:21:29.800Z,76.83
2018-07-11T01:24:02.312Z,76.93
2018-07-11T01:26:32.943Z,76.99
2018-07-11T01:29:01.505Z,77.09
2018-07-11T01:31:30.075Z,77.21
2018-07-11T01:33:59.174Z,76.18
2018-07-11T01:36:28.162Z,76.37
2018-07-11T01:38:57.213Z,76.70
2018-07-11T01:41:25.782Z,76.29
2018-07-11T01:43:54.363Z,76.12
2018-07-11T01:46:22.934Z,76.45
2018-07-11T01:48:51.587Z,76.62
2018-07-11T01:51:20.660Z,76.40
2018-07-11T01:53:49.211Z,76.34
2018-07-11T01:56:17.833Z,76.50
2018-07-11T01:58:47.501Z,76.30
2018-07-11T02:01:16.974Z,76.76
2018-07-11T02:03:45.572Z,77.03
2018-07-11T02:06:14.193Z,77.67
2018-07-11T02:08:43.331Z,77.72
2018-07-11T02:11:12.443Z,77.89
2018-07-11T02:13:41.076Z,77.46
2018-07-11T02:16:09.720Z,76.97
2018-07-11T02:18:38.315Z,76.44
2018-07-11T02:21:07.100Z,76.79
2018-07-11T02:23:38.679Z,76.99
2018-07-11T02:26:07.361Z,76.56
2018-07-11T02:28:35.928Z,75.88
2018-07-11T02:31:05.058Z,76.37
2018-07-11T02:33:33.660Z,76.23
2018-07-11T02:36:02.227Z,76.21
2018-07-11T02:38:30.796Z,76.55
2018-07-11T02:40:59.443Z,76.63
2018-07-11T02:43:28.005Z,76.63
2018-07-11T02:45:56.643Z,76.69
2018-07-11T02:48:25.484Z,76.66
2018-07-11T02:50:54.136Z,76.93
2018-07-11T02:53:24.343Z,75.79
2018-07-11T02:55:53.868Z,74.69
2018-07-11T02:58:22.468Z,74.61
2018-07-11T03:00:51.194Z,74.52
2018-07-11T03:03:20.028Z,74.98
2018-07-11T03:05:48.827Z,75.39
2018-07-11T03:08:18.204Z,75.88
2018-07-11T03:10:47.184Z,75.97
2018-07-11T03:13:19.091Z,75.99
2018-07-11T03:15:47.633Z,76.03
2018-07-11T03:18:16.194Z,76.32
2018-07-11T03:20:44.739Z,76.29
2018-07-11T03:23:13.380Z,76.24
2018-07-11T03:25:41.992Z,75.56
2018-07-11T03:28:10.582Z,75.29
2018-07-11T03:30:39.165Z,75.14
2018-07-11T03:33:07.819Z,74.66
2018-07-11T03:35:36.378Z,73.64
2018-07-11T03:38:04.983Z,73.39
2018-07-11T03:40:33.571Z,73.86
2018-07-11T03:43:02.166Z,74.08
2018-07-11T03:45:30.728Z,73.93
2018-07-11T03:47:59.316Z,74.71
2018-07-11T03:50:27.917Z,74.11
2018-07-11T03:52:56.528Z,73.49
2018-07-11T03:55:25.055Z,73.34
2018-07-11T03:57:53.597Z,72.88
2018-07-11T04:00:24.849Z,73.90
2018-07-11T04:02:53.673Z,74.29
2018-07-11T04:05:22.556Z,74.90
2018-07-11T04:07:51.179Z,75.01
2018-07-11T04:10:19.860Z,75.14
2018-07-11T04:12:52.044Z,76.48
2018-07-11T04:15:20.617Z,75.77
2018-07-11T04:17:49.183Z,75.38
2018-07-11T04:20:17.795Z,75.44
2018-07-11T04:22:46.340Z,76.34
2018-07-11T04:25:15.039Z,76.16
2018-07-11T04:27:43.624Z,75.12
2018-07-11T04:30:12.189Z,74.57
2018-07-11T04:32:40.951Z,74.61
2018-07-11T04:35:09.636Z,74.48
2018-07-11T04:37:51.328Z,73.67
2018-07-11T04:40:20.060Z,74.18
2018-07-11T04:42:48.645Z,73.44
2018-07-11T04:45:17.278Z,73.41
2018-07-11T04:47:45.871Z,73.58
2018-07-11T04:50:14.488Z,73.75
2018-07-11T04:52:43.888Z,73.92
2018-07-11T04:55:12.722Z,74.11
2018-07-11T04:57:41.279Z,73.86
2018-07-11T05:00:09.884Z,74.66
2018-07-11T05:02:38.412Z,74.84
2018-07-11T05:05:07.058Z,73.86
2018-07-11T05:07:35.635Z,74.08
2018-07-11T05:10:04.264Z,74.11
2018-07-11T05:12:32.843Z,74.17
2018-07-11T05:15:01.417Z,74.01
2018-07-11T05:17:30.036Z,74.69
2018-07-11T05:19:58.672Z,75.37
2018-07-11T05:22:27.262Z,75.65
2018-07-11T05:24:55.820Z,75.50
2018-07-11T05:27:24.388Z,75.53
2018-07-11T05:29:52.925Z,75.90
2018-07-11T05:32:21.505Z,75.66
2018-07-11T05:34:50.052Z,74.35
2018-07-11T05:37:18.618Z,74.10
2018-07-11T05:39:47.181Z,74.65
2018-07-11T05:42:15.792Z,75.01
2018-07-11T05:44:44.343Z,76.28
2018-07-11T05:47:13.068Z,76.59
2018-07-11T05:49:41.622Z,76.82
2018-07-11T05:52:10.295Z,76.90
2018-07-11T05:54:38.840Z,76.29
2018-07-11T05:57:07.444Z,76.05
2018-07-11T05:59:36.106Z,75.62
2018-07-11T06:02:04.828Z,75.01
2018-07-11T06:04:33.380Z,75.09
2018-07-11T06:07:01.976Z,74.57
2018-07-11T06:09:30.556Z,74.60
2018-07-11T06:11:59.121Z,73.73
2018-07-11T06:14:28.700Z,74.50
2018-07-11T06:16:57.789Z,74.72
2018-07-11T06:19:26.340Z,74.93
2018-07-11T06:21:54.945Z,74.90
2018-07-11T06:24:23.612Z,74.74
2018-07-11T06:26:52.174Z,74.85
2018-07-11T06:29:20.757Z,75.20
2018-07-11T06:31:49.284Z,75.77
2018-07-11T06:34:17.885Z,75.77
2018-07-11T06:36:46.623Z,75.56
2018-07-11T06:39:15.481Z,75.70
2018-07-11T06:41:44.012Z,75.36
2018-07-11T06:44:12.575Z,75.20
2018-07-11T06:46:41.184Z,74.43
2018-07-11T06:49:09.827Z,74.71
2018-07-11T06:51:38.418Z,74.24
2018-07-11T06:54:07.363Z,73.76
2018-07-11T06:56:35.939Z,72.78
2018-07-11T06:59:04.601Z,72.12
2018-07-11T07:01:33.184Z,73.19
2018-07-11T07:04:01.734Z,73.25
2018-07-11T07:06:30.340Z,72.00
2018-07-11T07:08:58.951Z,71.79
2018-07-11T07:11:27.593Z,72.26
2018-07-11T07:13:56.209Z,72.34
2018-07-11T07:16:24.847Z,72.12
2018-07-11T07:18:53.389Z,72.78
2018-07-11T07:21:21.961Z,72.10
2018-07-11T07:23:50.579Z,72.25
2018-07-11T07:26:19.200Z,72.89
2018-07-11T07:28:47.728Z,72.92
2018-07-11T07:31:16.363Z,72.78
2018-07-11T07:33:44.998Z,73.07
2018-07-11T07:36:13.816Z,72.93
2018-07-11T07:38:44.259Z,73.58
2018-07-11T07:41:12.892Z,73.22
2018-07-11T07:43:42.945Z,73.25
2018-07-11T07:46:11.655Z,73.41
2018-07-11T07:48:40.246Z,73.54
2018-07-11T07:51:09.914Z,73.59
2018-07-11T07:53:38.492Z,73.37
2018-07-11T07:56:07.206Z,74.00
2018-07-11T07:58:35.772Z,74.48
2018-07-11T08:01:04.528Z,74.12
2018-07-11T08:03:35.951Z,74.11
2018-07-11T08:06:04.540Z,73.04
2018-07-11T08:08:33.544Z,73.58
2018-07-11T08:11:02.244Z,74.00
2018-07-11T08:13:31.044Z,73.56
2018-07-11T08:15:59.616Z,74.04
2018-07-11T08:18:28.228Z,73.97
2018-07-11T08:20:56.846Z,73.89
2018-07-11T08:23:45.229Z,74.67
2018-07-11T08:26:25.579Z,75.29
2018-07-11T08:30:06.832Z,76.14
2018-07-11T08:32:42.104Z,76.70
2018-07-11T08:39:28.783Z,76.27
2018-07-11T08:42:12.698Z,76.60
2018-07-11T08:45:05.920Z,76.67
2018-07-11T08:47:44.683Z,75.01
2018-07-11T08:50:29.535Z,74.32
2018-07-11T08:53:11.762Z,74.92
2018-07-11T08:57:57.376Z,76.29
2018-07-11T09:00:48.187Z,77.29
2018-07-11T09:03:33.866Z,77.27
2018-07-11T09:06:14.363Z,77.19
2018-07-11T09:09:01.324Z,76.36
2018-07-11T09:11:41.004Z,76.09
2018-07-11T09:16:25.284Z,76.40
2018-07-11T09:19:03.809Z,75.74
2018-07-11T09:21:44.981Z,75.96
2018-07-11T09:24:22.444Z,75.79
2018-07-11T09:26:51.274Z,75.34
2018-07-11T09:29:19.924Z,73.85
2018-07-11T09:31:48.512Z,74.90
2018-07-11T09:34:17.066Z,73.99
2018-07-11T09:36:45.637Z,74.42
2018-07-11T09:39:14.252Z,73.06
2018-07-11T09:41:42.886Z,73.63
2018-07-11T09:44:11.589Z,74.34
2018-07-11T09:46:40.226Z,74.29
2018-07-11T09:49:09.264Z,73.27
2018-07-11T09:51:37.980Z,73.44
2018-07-11T09:54:06.572Z,72.83
2018-07-11T09:56:35.176Z,72.75
2018-07-11T09:59:03.865Z,73.02
2018-07-11T10:01:32.461Z,72.23
2018-07-11T10:04:01.164Z,72.33
2018-07-11T10:06:30.052Z,72.00
2018-07-11T10:08:59.692Z,71.79
2018-07-11T10:11:28.298Z,71.50
2018-07-11T10:13:56.950Z,71.32
2018-07-11T10:16:25.624Z,72.05
2018-07-11T10:18:58.455Z,71.82
2018-07-11T10:21:27.557Z,71.48
2018-07-11T10:23:56.120Z,70.83
2018-07-11T10:26:25.526Z,71.07
2018-07-11T10:28:54.592Z,70.26
2018-07-11T10:31:23.644Z,70.65
2018-07-11T10:33:52.256Z,70.17
2018-07-11T10:36:20.983Z,68.55
2018-07-11T10:38:49.696Z,68.04
2018-07-11T10:41:18.538Z,67.56
2018-07-11T10:43:47.392Z,67.80
2018-07-11T10:46:16.126Z,67.49
2018-07-11T10:48:44.724Z,67.61
2018-07-11T10:51:16.009Z,68.67
2018-07-11T10:53:44.559Z,68.30
2018-07-11T10:56:13.144Z,68.84
2018-07-11T10:58:41.760Z,68.85
2018-07-11T11:01:10.391Z,68.90
2018-07-11T11:03:38.944Z,69.47
2018-07-11T11:06:07.492Z,69.90
2018-07-11T11:08:36.094Z,69.89
2018-07-11T11:11:04.704Z,69.55
2018-07-11T11:13:33.350Z,69.65
2018-07-11T11:16:02.081Z,70.59
2018-07-11T11:18:30.638Z,70.85
2018-07-11T11:20:59.245Z,70.60
2018-07-11T11:23:27.814Z,69.95
2018-07-11T11:25:56.357Z,70.10
2018-07-11T11:28:25.013Z,70.36
2018-07-11T11:30:53.617Z,69.47
2018-07-11T11:33:22.242Z,69.85
2018-07-11T11:35:50.793Z,70.24
2018-07-11T11:38:19.620Z,68.66
2018-07-11T11:40:48.912Z,70.06
2018-07-11T11:43:17.589Z,69.46
2018-07-11T11:45:46.168Z,70.46
2018-07-11T11:48:14.776Z,70.36
2018-07-11T11:50:43.369Z,70.54
2018-07-11T11:53:12.409Z,71.87
2018-07-11T11:55:41.023Z,72.48
2018-07-11T11:58:09.623Z,72.59
2018-07-11T12:00:38.184Z,72.78
2018-07-11T12:03:07.300Z,73.92
2018-07-11T12:05:35.880Z,73.87
2018-07-11T12:08:04.480Z,74.26
2018-07-11T12:10:33.060Z,74.01
2018-07-11T12:13:01.730Z,74.38
2018-07-11T12:15:30.392Z,74.81
2018-07-11T12:17:58.996Z,75.28
2018-07-11T12:20:27.850Z,74.71
2018-07-11T12:22:56.413Z,75.46
2018-07-11T12:25:25.096Z,75.01
2018-07-11T12:27:53.909Z,74.36
2018-07-11T12:30:22.980Z,75.47
2018-07-11T12:32:52.008Z,75.33
2018-07-11T12:35:20.715Z,74.70
2018-07-11T12:37:49.839Z,74.39
2018-07-11T12:40:18.406Z,74.55
2018-07-11T12:42:47.042Z,74.55
2018-07-11T12:45:15.677Z,74.40
2018-07-11T12:49:55.075Z,74.36
2018-07-11T12:52:23.784Z,74.12
2018-07-11T12:54:52.381Z,74.63
2018-07-11T12:57:21.096Z,74.55
2018-07-11T12:59:49.752Z,73.93
2018-07-11T13:02:18.500Z,73.05
2018-07-11T13:04:47.641Z,71.98
2018-07-11T13:07:16.369Z,72.55
2018-07-11T13:09:44.960Z,72.54
2018-07-11T13:12:13.559Z,72.36
2018-07-11T13:14:42.229Z,71.78
2018-07-11T13:17:11.781Z,72.00
2018-07-11T13:19:40.437Z,71.95
2018-07-11T13:22:09.033Z,71.68
2018-07-11T13:24:37.620Z,72.10
2018-07-11T13:27:07.021Z,72.74
2018-07-11T13:29:35.668Z,73.68
2018-07-11T13:32:04.625Z,73.18
2018-07-11T13:34:33.272Z,73.62
2018-07-11T13:37:01.918Z,73.93
2018-07-11T13:39:30.864Z,73.88
2018-07-11T13:41:59.483Z,73.16
2018-07-11T13:44:28.080Z,71.97
2018-07-11T13:46:56.634Z,71.73
2018-07-11T13:49:25.204Z,71.55
2018-07-11T13:51:53.912Z,70.91
2018-07-11T13:54:22.545Z,70.81
2018-07-11T13:56:51.568Z,70.46
2018-07-11T13:59:20.202Z,69.71
2018-07-11T14:01:48.771Z,69.60
2018-07-11T14:04:17.428Z,70.90
2018-07-11T14:06:46.107Z,71.00
2018-07-11T14:09:15.056Z,71.39
2018-07-11T14:11:44.790Z,70.30
2018-07-11T14:14:14.152Z,70.85
2018-07-11T14:16:43.148Z,70.41
2018-07-11T14:19:16.078Z,70.16
2018-07-11T14:21:44.813Z,69.82
2018-07-11T14:24:14.232Z,70.32
2018-07-11T14:26:43.428Z,69.93
2018-07-11T14:29:12.098Z,70.25
2018-07-11T14:31:40.709Z,70.52
2018-07-11T14:34:09.947Z,70.57
2018-07-11T14:36:38.804Z,71.22
2018-07-11T14:39:08.498Z,70.49
2018-07-11T14:41:37.137Z,71.51
2018-07-11T14:44:05.739Z,71.70
2018-07-11T14:46:35.970Z,71.17
2018-07-11T14:49:05.151Z,70.47
2018-07-11T14:51:33.994Z,70.30
2018-07-11T14:54:02.933Z,70.83
2018-07-11T14:56:31.568Z,70.43
2018-07-11T14:59:00.814Z,70.10
2018-07-11T15:01:29.470Z,70.22
2018-07-11T15:03:58.065Z,70.32
2018-07-11T15:06:26.643Z,69.75
2018-07-11T15:08:56.224Z,68.90
2018-07-11T15:11:25.052Z,68.53
2018-07-11T15:13:53.943Z,68.88
2018-07-11T15:16:22.557Z,68.10
2018-07-11T15:18:51.577Z,66.73
2018-07-11T15:21:20.389Z,66.55
2018-07-11T15:23:49.027Z,65.42
2018-07-11T15:26:17.781Z,66.09
2018-07-11T15:28:46.453Z,65.70
2018-07-11T15:31:15.615Z,64.97
2018-07-11T15:33:44.275Z,65.97
2018-07-11T15:36:13.050Z,66.28
2018-07-11T15:38:41.649Z,65.30
2018-07-11T15:41:11.525Z,64.53
2018-07-11T15:43:41.593Z,65.49
2018-07-11T15:46:10.309Z,65.07
2018-07-11T15:48:38.890Z,65.42
2018-07-11T15:51:07.578Z,64.62
2018-07-11T15:53:36.447Z,64.08
2018-07-11T15:56:04.952Z,62.61
2018-07-11T15:58:37.650Z,60.38
2018-07-11T16:01:09.074Z,58.79
2018-07-11T16:03:47.282Z,59.61
2018-07-11T16:06:16.870Z,59.85
2018-07-11T16:08:51.544Z,58.90
2018-07-11T16:11:20.158Z,58.46
2018-07-11T16:13:49.423Z,58.65
2018-07-11T16:16:18.192Z,59.94
2018-07-11T16:18:46.817Z,59.88
2018-07-11T16:21:15.662Z,60.30
2018-07-11T16:23:44.360Z,61.11
2018-07-11T16:26:13.419Z,60.50
2018-07-11T16:28:42.350Z,60.85
2018-07-11T16:31:11.821Z,62.04
2018-07-11T16:33:40.562Z,62.42
2018-07-11T16:36:09.184Z,63.79
2018-07-11T16:38:37.804Z,64.95
2018-07-11T16:41:06.733Z,64.55
2018-07-11T16:43:35.339Z,65.45
2018-07-11T16:46:04.461Z,65.88
2018-07-11T16:48:33.108Z,65.03
2018-07-11T16:51:01.751Z,64.20
2018-07-11T16:53:30.366Z,64.26
2018-07-11T16:55:58.983Z,61.91
2018-07-11T16:58:30.432Z,62.12
2018-07-11T17:01:00.347Z,62.49
2018-07-11T17:03:29.772Z,62.81
2018-07-11T17:06:07.052Z,62.96
2018-07-11T17:08:38.140Z,62.38
2018-07-11T17:11:19.630Z,62.67
2018-07-11T17:17:01.856Z,64.33
2018-07-11T17:19:38.311Z,65.42
2018-07-11T17:22:08.629Z,65.59
2018-07-11T17:24:44.319Z,65.70
2018-07-11T17:27:14.529Z,65.98
2018-07-11T17:29:45.882Z,66.87
2018-07-11T17:32:14.632Z,67.59
2018-07-11T17:34:43.256Z,67.60
2018-07-11T17:37:12.391Z,68.28
2018-07-11T17:39:52.200Z,69.24
2018-07-11T17:42:22.284Z,69.08
2018-07-11T17:45:07.377Z,69.24
2018-07-11T17:47:44.640Z,70.27
2018-07-11T17:50:13.229Z,70.62
2018-07-11T17:53:55.160Z,71.79
2018-07-11T17:56:29.088Z,72.54
2018-07-11T17:59:00.910Z,73.64
2018-07-11T18:01:38.782Z,73.11
2018-07-11T18:04:14.045Z,72.42
2018-07-11T18:06:53.028Z,72.57
2018-07-11T18:09:23.730Z,73.04
2018-07-11T18:11:58.231Z,73.01
2018-07-11T18:14:42.928Z,72.35
2018-07-11T18:21:10.063Z,73.71
2018-07-11T18:23:49.385Z,74.36
2018-07-11T18:26:24.471Z,74.25
2018-07-11T18:29:19.255Z,73.46
2018-07-11T18:32:02.490Z,74.16
2018-07-11T18:34:40.880Z,74.25
2018-07-11T18:37:18.073Z,74.30
2018-07-11T18:40:01.578Z,74.00
2018-07-11T18:42:40.646Z,74.22
2018-07-11T18:47:22.287Z,74.15
2018-07-11T18:52:04.550Z,73.69
2018-07-11T18:54:50.079Z,74.88
2018-07-11T18:57:30.317Z,75.50
2018-07-11T19:00:22.032Z,75.13
2018-07-11T19:03:02.705Z,75.48
2018-07-11T19:05:58.356Z,75.41
2018-07-11T19:08:48.764Z,75.23
2018-07-11T19:11:21.720Z,74.99
2018-07-11T19:13:54.396Z,74.99
2018-07-11T19:18:37.526Z,74.43
2018-07-11T19:21:13.874Z,75.37
2018-07-11T19:23:54.350Z,75.31
2018-07-11T19:26:30.233Z,74.80
2018-07-11T19:29:05.867Z,74.43
2018-07-11T19:32:20.548Z,74.62
2018-07-11T19:35:00.791Z,74.38
2018-07-11T19:37:43.798Z,74.39
2018-07-11T19:40:43.938Z,73.96
2018-07-11T19:43:29.900Z,74.69
2018-07-11T19:46:12.528Z,75.10
2018-07-11T19:48:50.741Z,74.97
2018-07-11T19:54:02.293Z,75.38
2018-07-11T19:56:40.745Z,76.45
2018-07-11T19:59:09.342Z,76.38
2018-07-11T20:01:37.936Z,76.37
2018-07-11T20:04:06.607Z,76.03
2018-07-11T20:06:36.294Z,76.37
2018-07-11T20:09:05.920Z,76.48
2018-07-11T20:11:34.524Z,76.36
2018-07-11T20:14:03.112Z,76.26
2018-07-11T20:16:31.776Z,76.10
2018-07-11T20:19:00.609Z,75.55
2018-07-11T20:21:30.424Z,75.96
2018-07-11T20:23:59.080Z,75.54
2018-07-11T20:26:27.657Z,75.19
2018-07-11T20:28:56.304Z,75.15
2018-07-11T20:31:24.924Z,74.57
2018-07-11T20:33:53.529Z,74.56
2018-07-11T20:36:22.154Z,74.64
2018-07-11T20:38:50.787Z,74.39
2018-07-11T20:41:19.564Z,74.10
2018-07-11T20:43:48.272Z,74.62
2018-07-11T20:46:17.049Z,74.54
2018-07-11T20:48:45.599Z,74.64
2018-07-11T20:51:14.388Z,74.67
2018-07-11T20:53:42.979Z,74.71
2018-07-11T20:56:11.618Z,74.93
2018-07-11T20:58:51.373Z,74.27
2018-07-11T21:01:31.865Z,75.14
2018-07-11T21:06:30.429Z,75.04
2018-07-11T21:09:21.294Z,76.09
2018-07-11T21:12:05.081Z,75.73
2018-07-11T21:16:47.646Z,76.43
2018-07-11T21:19:16.390Z,76.08
2018-07-11T21:21:44.949Z,76.56
2018-07-11T21:24:13.987Z,76.05
2018-07-11T21:26:42.535Z,75.92
2018-07-11T21:29:11.244Z,76.24
2018-07-11T21:31:39.832Z,75.94
2018-07-11T21:34:08.389Z,75.89
2018-07-11T21:36:36.993Z,75.71
2018-07-11T21:39:06.091Z,75.65
2018-07-11T21:41:34.866Z,76.02
2018-07-11T21:44:03.428Z,76.24
2018-07-11T21:46:32.084Z,76.80
2018-07-11T21:49:00.655Z,76.94
2018-07-11T21:51:29.207Z,76.55
2018-07-11T21:53:57.763Z,76.10
2018-07-11T21:56:26.416Z,76.23
2018-07-11T21:58:54.979Z,75.88
2018-07-11T22:01:23.537Z,75.84
2018-07-11T22:03:52.093Z,75.56
2018-07-11T22:06:21.542Z,76.98
2018-07-11T22:08:50.178Z,77.86
2018-07-11T22:11:18.855Z,78.17
2018-07-11T22:13:47.828Z,78.25
2018-07-11T22:16:16.408Z,78.28
2018-07-11T22:18:46.160Z,77.93
2018-07-11T22:21:14.604Z,77.33
2018-07-11T22:23:41.928Z,77.13
2018-07-11T22:26:09.209Z,77.07
2018-07-11T22:28:36.511Z,76.79
2018-07-11T22:31:03.887Z,76.37
2018-07-11T22:33:31.180Z,75.64
2018-07-11T22:35:58.474Z,76.37
2018-07-11T22:38:25.808Z,75.98
2018-07-11T22:40:53.089Z,77.07
2018-07-11T22:43:20.383Z,77.79
2018-07-11T22:45:47.694Z,78.04
2018-07-11T22:48:15.059Z,77.70
2018-07-11T22:50:42.343Z,77.02
2018-07-11T22:53:09.821Z,76.76
2018-07-11T22:55:37.143Z,75.95
2018-07-11T22:58:04.456Z,76.57
2018-07-11T23:00:31.778Z,76.69
2018-07-11T23:02:59.073Z,76.68
2018-07-11T23:05:26.435Z,76.64
2018-07-11T23:07:53.731Z,76.28
2018-07-11T23:10:21.024Z,76.39
2018-07-11T23:12:48.350Z,76.41
2018-07-11T23:15:15.668Z,76.50
2018-07-11T23:17:43.267Z,76.09
2018-07-11T23:20:10.629Z,76.15
2018-07-11T23:22:37.980Z,75.75
2018-07-11T23:25:05.347Z,75.52
2018-07-11T23:27:32.933Z,75.88
2018-07-11T23:32:50.411Z,75.76
2018-07-11T23:35:17.708Z,75.91
2018-07-11T23:37:45.036Z,75.57
2018-07-11T23:40:12.466Z,75.56
2018-07-11T23:42:39.780Z,75.42
2018-07-11T23:45:07.104Z,75.72
2018-07-11T23:47:34.416Z,75.16
2018-07-11T23:50:01.702Z,75.34
2018-07-11T23:52:29.023Z,75.04
2018-07-11T23:54:56.321Z,75.57
2018-07-11T23:57:23.610Z,75.44
2018-07-11T23:59:51.036Z,75.57
